sensor_id;sensor_type;location;lat;lon;timestamp;P1;durP1;ratioP1;P2;durP2;ratioP2
6651;SDS011;3362;50.892;10.692;2023-05-07T00:00:33;25.77;;;15.23;;
6651;SDS011;3362;50.892;10.692;2023-05-07T00:02:59;23.80;;;14.20;;
6651;SDS011;3362;50.892;10.692;2023-05-07T00:05:26;23.83;;;13.35;;
6651;SDS011;3362;50.892;10.692;2023-05-07T00:07:52;27.98;;;14.55;;
6651;SDS011;3362;50.892;10.692;2023-05-07T00:10:18;27.35;;;15.20;;
6651;SDS011;3362;50.892;10.692;2023-05-07T00:12:46;27.45;;;14.95;;
6651;SDS011;3362;50.892;10.692;2023-05-07T00:15:12;31.33;;;15.00;;
6651;SDS011;3362;50.892;10.692;2023-05-07T00:17:38;29.10;;;14.88;;
6651;SDS011;3362;50.892;10.692;2023-05-07T00:20:05;25.35;;;14.02;;
6651;SDS011;3362;50.892;10.692;2023-05-07T00:22:31;30.92;;;15.90;;
6651;SDS011;3362;50.892;10.692;2023-05-07T00:24:57;25.80;;;14.63;;
6651;SDS011;3362;50.892;10.692;2023-05-07T00:27:24;30.50;;;14.93;;
6651;SDS011;3362;50.892;10.692;2023-05-07T00:29:51;27.52;;;15.15;;
6651;SDS011;3362;50.892;10.692;2023-05-07T00:32:17;27.08;;;15.65;;
6651;SDS011;3362;50.892;10.692;2023-05-07T00:34:44;37.30;;;16.80;;
6651;SDS011;3362;50.892;10.692;2023-05-07T00:37:10;26.02;;;15.07;;
6651;SDS011;3362;50.892;10.692;2023-05-07T00:39:37;29.17;;;15.43;;
6651;SDS011;3362;50.892;10.692;2023-05-07T00:42:03;29.55;;;15.32;;
6651;SDS011;3362;50.892;10.692;2023-05-07T00:44:29;29.42;;;15.73;;
6651;SDS011;3362;50.892;10.692;2023-05-07T00:46:57;30.23;;;15.55;;
6651;SDS011;3362;50.892;10.692;2023-05-07T00:49:23;29.60;;;16.17;;
6651;SDS011;3362;50.892;10.692;2023-05-07T00:51:52;29.95;;;16.00;;
6651;SDS011;3362;50.892;10.692;2023-05-07T00:54:19;22.55;;;13.65;;
6651;SDS011;3362;50.892;10.692;2023-05-07T00:56:45;32.08;;;14.95;;
6651;SDS011;3362;50.892;10.692;2023-05-07T00:59:11;31.00;;;15.27;;
6651;SDS011;3362;50.892;10.692;2023-05-07T01:01:37;31.67;;;15.55;;
6651;SDS011;3362;50.892;10.692;2023-05-07T01:04:05;29.58;;;15.52;;
6651;SDS011;3362;50.892;10.692;2023-05-07T01:06:31;30.40;;;16.65;;
6651;SDS011;3362;50.892;10.692;2023-05-07T01:08:58;24.80;;;14.55;;
6651;SDS011;3362;50.892;10.692;2023-05-07T01:11:24;30.65;;;16.08;;
6651;SDS011;3362;50.892;10.692;2023-05-07T01:13:51;29.15;;;15.18;;
6651;SDS011;3362;50.892;10.692;2023-05-07T01:16:17;33.72;;;16.00;;
6651;SDS011;3362;50.892;10.692;2023-05-07T01:18:43;31.92;;;15.82;;
6651;SDS011;3362;50.892;10.692;2023-05-07T01:21:13;29.88;;;15.82;;
6651;SDS011;3362;50.892;10.692;2023-05-07T01:23:42;29.80;;;15.80;;
6651;SDS011;3362;50.892;10.692;2023-05-07T01:26:10;29.98;;;15.82;;
6651;SDS011;3362;50.892;10.692;2023-05-07T01:28:36;37.03;;;18.15;;
6651;SDS011;3362;50.892;10.692;2023-05-07T01:31:02;31.60;;;16.63;;
6651;SDS011;3362;50.892;10.692;2023-05-07T01:33:31;33.28;;;16.95;;
6651;SDS011;3362;50.892;10.692;2023-05-07T01:35:59;26.67;;;15.77;;
6651;SDS011;3362;50.892;10.692;2023-05-07T01:38:27;29.25;;;15.70;;
6651;SDS011;3362;50.892;10.692;2023-05-07T01:40:55;34.63;;;16.67;;
6651;SDS011;3362;50.892;10.692;2023-05-07T01:43:21;27.42;;;15.65;;
6651;SDS011;3362;50.892;10.692;2023-05-07T01:45:48;28.60;;;16.17;;
6651;SDS011;3362;50.892;10.692;2023-05-07T01:48:14;30.98;;;16.38;;
6651;SDS011;3362;50.892;10.692;2023-05-07T01:50:41;32.03;;;16.20;;
6651;SDS011;3362;50.892;10.692;2023-05-07T01:53:07;32.10;;;17.20;;
6651;SDS011;3362;50.892;10.692;2023-05-07T01:55:33;32.88;;;16.55;;
6651;SDS011;3362;50.892;10.692;2023-05-07T01:58:03;33.75;;;17.33;;
6651;SDS011;3362;50.892;10.692;2023-05-07T02:00:29;32.95;;;18.23;;
6651;SDS011;3362;50.892;10.692;2023-05-07T02:02:55;32.78;;;17.63;;
6651;SDS011;3362;50.892;10.692;2023-05-07T02:05:22;32.58;;;17.17;;
6651;SDS011;3362;50.892;10.692;2023-05-07T02:07:49;35.33;;;17.13;;
6651;SDS011;3362;50.892;10.692;2023-05-07T02:10:15;28.98;;;16.13;;
6651;SDS011;3362;50.892;10.692;2023-05-07T02:12:41;37.30;;;16.67;;
6651;SDS011;3362;50.892;10.692;2023-05-07T02:15:09;39.70;;;17.45;;
6651;SDS011;3362;50.892;10.692;2023-05-07T02:17:39;30.73;;;16.13;;
6651;SDS011;3362;50.892;10.692;2023-05-07T02:20:06;35.20;;;16.73;;
6651;SDS011;3362;50.892;10.692;2023-05-07T02:22:38;39.85;;;17.33;;
6651;SDS011;3362;50.892;10.692;2023-05-07T02:25:04;34.80;;;16.60;;
6651;SDS011;3362;50.892;10.692;2023-05-07T02:27:30;27.90;;;15.25;;
6651;SDS011;3362;50.892;10.692;2023-05-07T02:29:57;29.95;;;16.05;;
6651;SDS011;3362;50.892;10.692;2023-05-07T02:32:24;32.25;;;15.68;;
6651;SDS011;3362;50.892;10.692;2023-05-07T02:34:50;29.67;;;15.25;;
6651;SDS011;3362;50.892;10.692;2023-05-07T02:37:17;31.83;;;15.60;;
6651;SDS011;3362;50.892;10.692;2023-05-07T02:39:43;31.10;;;15.38;;
6651;SDS011;3362;50.892;10.692;2023-05-07T02:42:09;33.35;;;16.52;;
6651;SDS011;3362;50.892;10.692;2023-05-07T02:44:35;35.08;;;17.50;;
6651;SDS011;3362;50.892;10.692;2023-05-07T02:47:02;31.80;;;16.23;;
6651;SDS011;3362;50.892;10.692;2023-05-07T02:49:29;39.00;;;16.80;;
6651;SDS011;3362;50.892;10.692;2023-05-07T02:51:55;32.90;;;17.30;;
6651;SDS011;3362;50.892;10.692;2023-05-07T02:54:22;39.88;;;16.15;;
6651;SDS011;3362;50.892;10.692;2023-05-07T02:56:48;34.88;;;16.27;;
6651;SDS011;3362;50.892;10.692;2023-05-07T02:59:14;41.60;;;17.85;;
6651;SDS011;3362;50.892;10.692;2023-05-07T03:01:40;34.03;;;17.52;;
6651;SDS011;3362;50.892;10.692;2023-05-07T03:04:08;34.88;;;16.63;;
6651;SDS011;3362;50.892;10.692;2023-05-07T03:06:36;36.83;;;16.90;;
6651;SDS011;3362;50.892;10.692;2023-05-07T03:09:03;38.05;;;17.02;;
6651;SDS011;3362;50.892;10.692;2023-05-07T03:11:29;38.33;;;17.23;;
6651;SDS011;3362;50.892;10.692;2023-05-07T03:13:55;36.90;;;17.08;;
6651;SDS011;3362;50.892;10.692;2023-05-07T03:16:21;34.42;;;16.33;;
6651;SDS011;3362;50.892;10.692;2023-05-07T03:18:47;35.28;;;16.45;;
6651;SDS011;3362;50.892;10.692;2023-05-07T03:21:14;32.42;;;16.63;;
6651;SDS011;3362;50.892;10.692;2023-05-07T03:23:41;41.15;;;17.23;;
6651;SDS011;3362;50.892;10.692;2023-05-07T03:26:07;41.42;;;17.88;;
6651;SDS011;3362;50.892;10.692;2023-05-07T03:28:34;40.90;;;17.70;;
6651;SDS011;3362;50.892;10.692;2023-05-07T03:31:00;36.10;;;16.30;;
6651;SDS011;3362;50.892;10.692;2023-05-07T03:33:26;33.20;;;16.17;;
6651;SDS011;3362;50.892;10.692;2023-05-07T03:35:53;38.15;;;16.88;;
6651;SDS011;3362;50.892;10.692;2023-05-07T03:38:19;41.50;;;16.73;;
6651;SDS011;3362;50.892;10.692;2023-05-07T03:40:47;34.97;;;16.77;;
6651;SDS011;3362;50.892;10.692;2023-05-07T03:43:13;43.63;;;17.05;;
6651;SDS011;3362;50.892;10.692;2023-05-07T03:45:39;37.45;;;17.90;;
6651;SDS011;3362;50.892;10.692;2023-05-07T03:48:05;36.80;;;17.02;;
6651;SDS011;3362;50.892;10.692;2023-05-07T03:50:31;40.80;;;17.02;;
6651;SDS011;3362;50.892;10.692;2023-05-07T03:52:58;34.80;;;16.92;;
6651;SDS011;3362;50.892;10.692;2023-05-07T03:55:24;34.17;;;15.98;;
6651;SDS011;3362;50.892;10.692;2023-05-07T03:57:52;40.33;;;17.38;;
6651;SDS011;3362;50.892;10.692;2023-05-07T04:00:18;38.33;;;16.65;;
6651;SDS011;3362;50.892;10.692;2023-05-07T04:02:45;34.88;;;17.38;;
6651;SDS011;3362;50.892;10.692;2023-05-07T04:05:11;35.95;;;16.60;;
6651;SDS011;3362;50.892;10.692;2023-05-07T04:07:38;32.30;;;15.73;;
6651;SDS011;3362;50.892;10.692;2023-05-07T04:10:04;34.17;;;16.70;;
6651;SDS011;3362;50.892;10.692;2023-05-07T04:12:31;32.88;;;15.55;;
6651;SDS011;3362;50.892;10.692;2023-05-07T04:14:58;34.08;;;15.20;;
6651;SDS011;3362;50.892;10.692;2023-05-07T04:17:24;36.35;;;16.80;;
6651;SDS011;3362;50.892;10.692;2023-05-07T04:19:51;37.35;;;15.48;;
6651;SDS011;3362;50.892;10.692;2023-05-07T04:22:17;37.53;;;16.58;;
6651;SDS011;3362;50.892;10.692;2023-05-07T04:24:43;31.30;;;15.75;;
6651;SDS011;3362;50.892;10.692;2023-05-07T04:27:09;37.15;;;15.65;;
6651;SDS011;3362;50.892;10.692;2023-05-07T04:29:35;33.50;;;15.02;;
6651;SDS011;3362;50.892;10.692;2023-05-07T04:32:03;42.42;;;16.00;;
6651;SDS011;3362;50.892;10.692;2023-05-07T04:34:30;31.25;;;14.85;;
6651;SDS011;3362;50.892;10.692;2023-05-07T04:36:57;29.13;;;14.07;;
6651;SDS011;3362;50.892;10.692;2023-05-07T04:39:24;34.20;;;15.38;;
6651;SDS011;3362;50.892;10.692;2023-05-07T04:41:50;33.35;;;15.63;;
6651;SDS011;3362;50.892;10.692;2023-05-07T04:44:16;33.65;;;16.95;;
6651;SDS011;3362;50.892;10.692;2023-05-07T04:46:42;37.38;;;16.08;;
6651;SDS011;3362;50.892;10.692;2023-05-07T04:49:10;35.38;;;16.38;;
6651;SDS011;3362;50.892;10.692;2023-05-07T04:51:36;35.47;;;15.77;;
6651;SDS011;3362;50.892;10.692;2023-05-07T04:54:03;32.78;;;14.75;;
6651;SDS011;3362;50.892;10.692;2023-05-07T04:56:29;33.78;;;16.30;;
6651;SDS011;3362;50.892;10.692;2023-05-07T04:58:55;37.33;;;15.57;;
6651;SDS011;3362;50.892;10.692;2023-05-07T05:01:21;30.52;;;15.68;;
6651;SDS011;3362;50.892;10.692;2023-05-07T05:03:48;39.15;;;14.38;;
6651;SDS011;3362;50.892;10.692;2023-05-07T05:06:15;33.90;;;14.65;;
6651;SDS011;3362;50.892;10.692;2023-05-07T05:08:41;33.50;;;14.80;;
6651;SDS011;3362;50.892;10.692;2023-05-07T05:11:08;31.85;;;14.48;;
6651;SDS011;3362;50.892;10.692;2023-05-07T05:13:34;30.23;;;13.90;;
6651;SDS011;3362;50.892;10.692;2023-05-07T05:16:00;31.30;;;14.32;;
6651;SDS011;3362;50.892;10.692;2023-05-07T05:18:27;30.65;;;13.95;;
6651;SDS011;3362;50.892;10.692;2023-05-07T05:20:53;31.58;;;13.65;;
6651;SDS011;3362;50.892;10.692;2023-05-07T05:23:20;29.27;;;13.90;;
6651;SDS011;3362;50.892;10.692;2023-05-07T05:25:47;32.47;;;16.23;;
6651;SDS011;3362;50.892;10.692;2023-05-07T05:28:13;28.90;;;13.98;;
6651;SDS011;3362;50.892;10.692;2023-05-07T05:30:39;29.40;;;13.80;;
6651;SDS011;3362;50.892;10.692;2023-05-07T05:33:05;27.48;;;14.10;;
6651;SDS011;3362;50.892;10.692;2023-05-07T05:35:32;30.27;;;14.73;;
6651;SDS011;3362;50.892;10.692;2023-05-07T05:37:58;34.42;;;14.02;;
6651;SDS011;3362;50.892;10.692;2023-05-07T05:40:25;29.60;;;14.13;;
6651;SDS011;3362;50.892;10.692;2023-05-07T05:42:52;30.08;;;14.10;;
6651;SDS011;3362;50.892;10.692;2023-05-07T05:45:18;30.35;;;13.77;;
6651;SDS011;3362;50.892;10.692;2023-05-07T05:47:44;31.75;;;13.63;;
6651;SDS011;3362;50.892;10.692;2023-05-07T05:50:10;31.08;;;14.30;;
6651;SDS011;3362;50.892;10.692;2023-05-07T05:52:36;30.83;;;13.88;;
6651;SDS011;3362;50.892;10.692;2023-05-07T05:55:03;27.85;;;13.32;;
6651;SDS011;3362;50.892;10.692;2023-05-07T05:57:30;22.67;;;12.45;;
6651;SDS011;3362;50.892;10.692;2023-05-07T05:59:57;25.25;;;12.88;;
6651;SDS011;3362;50.892;10.692;2023-05-07T06:02:23;28.70;;;13.57;;
6651;SDS011;3362;50.892;10.692;2023-05-07T06:04:49;26.98;;;13.00;;
6651;SDS011;3362;50.892;10.692;2023-05-07T06:07:15;22.05;;;11.52;;
6651;SDS011;3362;50.892;10.692;2023-05-07T06:09:41;26.83;;;12.68;;
6651;SDS011;3362;50.892;10.692;2023-05-07T06:12:08;28.48;;;12.82;;
6651;SDS011;3362;50.892;10.692;2023-05-07T06:14:35;21.52;;;11.10;;
6651;SDS011;3362;50.892;10.692;2023-05-07T06:17:01;22.13;;;12.15;;
6651;SDS011;3362;50.892;10.692;2023-05-07T06:19:28;22.23;;;11.48;;
6651;SDS011;3362;50.892;10.692;2023-05-07T06:21:54;21.45;;;12.40;;
6651;SDS011;3362;50.892;10.692;2023-05-07T06:24:21;24.33;;;11.27;;
6651;SDS011;3362;50.892;10.692;2023-05-07T06:26:47;22.08;;;11.77;;
6651;SDS011;3362;50.892;10.692;2023-05-07T06:29:13;20.05;;;9.93;;
6651;SDS011;3362;50.892;10.692;2023-05-07T06:31:41;18.98;;;10.98;;
6651;SDS011;3362;50.892;10.692;2023-05-07T06:34:07;26.27;;;11.57;;
6651;SDS011;3362;50.892;10.692;2023-05-07T06:36:33;20.45;;;10.98;;
6651;SDS011;3362;50.892;10.692;2023-05-07T06:39:00;21.67;;;11.98;;
6651;SDS011;3362;50.892;10.692;2023-05-07T06:41:26;23.45;;;11.38;;
6651;SDS011;3362;50.892;10.692;2023-05-07T06:43:52;19.85;;;9.90;;
6651;SDS011;3362;50.892;10.692;2023-05-07T06:46:19;20.60;;;10.95;;
6651;SDS011;3362;50.892;10.692;2023-05-07T06:48:46;17.35;;;9.50;;
6651;SDS011;3362;50.892;10.692;2023-05-07T06:51:12;20.20;;;10.65;;
6651;SDS011;3362;50.892;10.692;2023-05-07T06:53:39;19.30;;;9.43;;
6651;SDS011;3362;50.892;10.692;2023-05-07T06:56:05;18.05;;;9.50;;
6651;SDS011;3362;50.892;10.692;2023-05-07T06:58:31;18.10;;;9.35;;
6651;SDS011;3362;50.892;10.692;2023-05-07T07:00:58;20.98;;;11.02;;
6651;SDS011;3362;50.892;10.692;2023-05-07T07:03:24;19.38;;;10.02;;
6651;SDS011;3362;50.892;10.692;2023-05-07T07:05:52;17.77;;;10.23;;
6651;SDS011;3362;50.892;10.692;2023-05-07T07:08:18;19.73;;;10.27;;
6651;SDS011;3362;50.892;10.692;2023-05-07T07:10:46;17.63;;;9.98;;
6651;SDS011;3362;50.892;10.692;2023-05-07T07:13:12;17.90;;;10.00;;
6651;SDS011;3362;50.892;10.692;2023-05-07T07:15:38;17.88;;;10.27;;
6651;SDS011;3362;50.892;10.692;2023-05-07T07:18:05;16.33;;;10.20;;
6651;SDS011;3362;50.892;10.692;2023-05-07T07:20:31;22.48;;;10.52;;
6651;SDS011;3362;50.892;10.692;2023-05-07T07:22:58;23.75;;;11.52;;
6651;SDS011;3362;50.892;10.692;2023-05-07T07:25:25;20.02;;;11.60;;
6651;SDS011;3362;50.892;10.692;2023-05-07T07:27:51;26.55;;;12.93;;
6651;SDS011;3362;50.892;10.692;2023-05-07T07:30:17;21.25;;;11.80;;
6651;SDS011;3362;50.892;10.692;2023-05-07T07:32:43;18.80;;;11.13;;
6651;SDS011;3362;50.892;10.692;2023-05-07T07:35:10;26.30;;;11.38;;
6651;SDS011;3362;50.892;10.692;2023-05-07T07:37:36;23.88;;;11.48;;
6651;SDS011;3362;50.892;10.692;2023-05-07T07:40:04;24.08;;;13.57;;
6651;SDS011;3362;50.892;10.692;2023-05-07T07:42:30;30.75;;;16.90;;
6651;SDS011;3362;50.892;10.692;2023-05-07T07:44:56;24.65;;;13.73;;
6651;SDS011;3362;50.892;10.692;2023-05-07T07:47:23;22.40;;;13.02;;
6651;SDS011;3362;50.892;10.692;2023-05-07T07:49:49;18.70;;;11.18;;
6651;SDS011;3362;50.892;10.692;2023-05-07T07:52:15;20.48;;;10.68;;
6651;SDS011;3362;50.892;10.692;2023-05-07T07:54:41;20.00;;;10.23;;
6651;SDS011;3362;50.892;10.692;2023-05-07T07:57:09;19.15;;;8.88;;
6651;SDS011;3362;50.892;10.692;2023-05-07T07:59:35;18.13;;;10.93;;
6651;SDS011;3362;50.892;10.692;2023-05-07T08:02:01;15.70;;;9.38;;
6651;SDS011;3362;50.892;10.692;2023-05-07T08:04:27;15.65;;;9.07;;
6651;SDS011;3362;50.892;10.692;2023-05-07T08:06:55;19.20;;;9.50;;
6651;SDS011;3362;50.892;10.692;2023-05-07T08:09:21;20.77;;;9.68;;
6651;SDS011;3362;50.892;10.692;2023-05-07T08:11:47;18.70;;;9.48;;
6651;SDS011;3362;50.892;10.692;2023-05-07T08:14:15;15.95;;;9.07;;
6651;SDS011;3362;50.892;10.692;2023-05-07T08:16:41;18.60;;;9.07;;
6651;SDS011;3362;50.892;10.692;2023-05-07T08:19:07;14.55;;;8.82;;
6651;SDS011;3362;50.892;10.692;2023-05-07T08:21:34;13.93;;;8.23;;
6651;SDS011;3362;50.892;10.692;2023-05-07T08:24:00;21.23;;;8.32;;
6651;SDS011;3362;50.892;10.692;2023-05-07T08:26:26;17.15;;;8.38;;
6651;SDS011;3362;50.892;10.692;2023-05-07T08:28:53;16.67;;;8.93;;
6651;SDS011;3362;50.892;10.692;2023-05-07T08:31:20;16.90;;;8.43;;
6651;SDS011;3362;50.892;10.692;2023-05-07T08:33:46;18.50;;;8.95;;
6651;SDS011;3362;50.892;10.692;2023-05-07T08:36:12;14.95;;;7.88;;
6651;SDS011;3362;50.892;10.692;2023-05-07T08:38:39;19.15;;;9.27;;
6651;SDS011;3362;50.892;10.692;2023-05-07T08:41:09;17.05;;;9.27;;
6651;SDS011;3362;50.892;10.692;2023-05-07T08:43:35;15.18;;;8.55;;
6651;SDS011;3362;50.892;10.692;2023-05-07T08:46:02;17.83;;;8.57;;
6651;SDS011;3362;50.892;10.692;2023-05-07T08:48:29;17.42;;;9.15;;
6651;SDS011;3362;50.892;10.692;2023-05-07T08:50:57;18.05;;;9.82;;
6651;SDS011;3362;50.892;10.692;2023-05-07T08:53:23;16.25;;;8.48;;
6651;SDS011;3362;50.892;10.692;2023-05-07T08:55:49;15.82;;;8.82;;
6651;SDS011;3362;50.892;10.692;2023-05-07T08:58:16;15.95;;;8.57;;
6651;SDS011;3362;50.892;10.692;2023-05-07T09:00:42;15.13;;;8.70;;
6651;SDS011;3362;50.892;10.692;2023-05-07T09:03:08;15.75;;;8.82;;
6651;SDS011;3362;50.892;10.692;2023-05-07T09:05:38;16.70;;;8.38;;
6651;SDS011;3362;50.892;10.692;2023-05-07T09:08:05;15.68;;;7.57;;
6651;SDS011;3362;50.892;10.692;2023-05-07T09:10:32;12.88;;;8.23;;
6651;SDS011;3362;50.892;10.692;2023-05-07T09:12:58;17.45;;;8.55;;
6651;SDS011;3362;50.892;10.692;2023-05-07T09:15:25;15.48;;;8.70;;
6651;SDS011;3362;50.892;10.692;2023-05-07T09:17:51;17.35;;;9.38;;
6651;SDS011;3362;50.892;10.692;2023-05-07T09:20:18;16.15;;;9.93;;
6651;SDS011;3362;50.892;10.692;2023-05-07T09:22:45;14.25;;;8.80;;
6651;SDS011;3362;50.892;10.692;2023-05-07T09:25:11;19.30;;;9.50;;
6651;SDS011;3362;50.892;10.692;2023-05-07T09:27:38;17.75;;;8.80;;
6651;SDS011;3362;50.892;10.692;2023-05-07T09:30:04;16.17;;;9.18;;
6651;SDS011;3362;50.892;10.692;2023-05-07T09:32:34;16.88;;;8.70;;
6651;SDS011;3362;50.892;10.692;2023-05-07T09:35:00;17.42;;;9.20;;
6651;SDS011;3362;50.892;10.692;2023-05-07T09:37:27;14.55;;;9.18;;
6651;SDS011;3362;50.892;10.692;2023-05-07T09:39:54;19.67;;;9.50;;
6651;SDS011;3362;50.892;10.692;2023-05-07T09:42:22;15.75;;;8.75;;
6651;SDS011;3362;50.892;10.692;2023-05-07T09:44:48;15.07;;;8.05;;
6651;SDS011;3362;50.892;10.692;2023-05-07T09:47:16;15.27;;;8.55;;
6651;SDS011;3362;50.892;10.692;2023-05-07T09:49:44;14.88;;;8.35;;
6651;SDS011;3362;50.892;10.692;2023-05-07T09:52:12;16.00;;;7.78;;
6651;SDS011;3362;50.892;10.692;2023-05-07T09:54:39;15.05;;;8.18;;
6651;SDS011;3362;50.892;10.692;2023-05-07T09:57:09;22.15;;;9.10;;
6651;SDS011;3362;50.892;10.692;2023-05-07T09:59:36;15.20;;;8.25;;
6651;SDS011;3362;50.892;10.692;2023-05-07T10:02:03;16.40;;;8.63;;
6651;SDS011;3362;50.892;10.692;2023-05-07T10:04:29;16.98;;;9.43;;
6651;SDS011;3362;50.892;10.692;2023-05-07T10:06:56;16.63;;;9.07;;
6651;SDS011;3362;50.892;10.692;2023-05-07T10:09:23;15.60;;;8.45;;
6651;SDS011;3362;50.892;10.692;2023-05-07T10:11:50;14.85;;;8.82;;
6651;SDS011;3362;50.892;10.692;2023-05-07T10:14:18;18.83;;;8.70;;
6651;SDS011;3362;50.892;10.692;2023-05-07T10:16:45;19.33;;;9.77;;
6651;SDS011;3362;50.892;10.692;2023-05-07T10:19:13;13.68;;;9.10;;
6651;SDS011;3362;50.892;10.692;2023-05-07T10:21:43;17.48;;;9.13;;
6651;SDS011;3362;50.892;10.692;2023-05-07T10:24:10;16.08;;;8.95;;
6651;SDS011;3362;50.892;10.692;2023-05-07T10:26:39;14.45;;;8.52;;
6651;SDS011;3362;50.892;10.692;2023-05-07T10:29:07;15.18;;;8.32;;
6651;SDS011;3362;50.892;10.692;2023-05-07T10:34:20;18.70;;;9.63;;
6651;SDS011;3362;50.892;10.692;2023-05-07T10:36:47;15.35;;;8.85;;
6651;SDS011;3362;50.892;10.692;2023-05-07T10:39:13;15.00;;;9.02;;
6651;SDS011;3362;50.892;10.692;2023-05-07T10:41:40;15.07;;;8.40;;
6651;SDS011;3362;50.892;10.692;2023-05-07T10:44:06;16.13;;;8.82;;
6651;SDS011;3362;50.892;10.692;2023-05-07T10:46:32;15.95;;;8.27;;
6651;SDS011;3362;50.892;10.692;2023-05-07T10:49:06;15.07;;;9.13;;
6651;SDS011;3362;50.892;10.692;2023-05-07T10:51:34;15.75;;;8.63;;
6651;SDS011;3362;50.892;10.692;2023-05-07T10:54:20;14.00;;;8.20;;
6651;SDS011;3362;50.892;10.692;2023-05-07T10:56:46;20.60;;;8.25;;
6651;SDS011;3362;50.892;10.692;2023-05-07T10:59:31;14.10;;;9.20;;
6651;SDS011;3362;50.892;10.692;2023-05-07T11:01:59;14.27;;;8.80;;
6651;SDS011;3362;50.892;10.692;2023-05-07T11:04:27;14.13;;;9.18;;
6651;SDS011;3362;50.892;10.692;2023-05-07T11:07:18;12.93;;;7.93;;
6651;SDS011;3362;50.892;10.692;2023-05-07T11:10:02;17.08;;;8.43;;
6651;SDS011;3362;50.892;10.692;2023-05-07T11:18:14;14.70;;;7.95;;
6651;SDS011;3362;50.892;10.692;2023-05-07T11:20:48;15.52;;;7.95;;
6651;SDS011;3362;50.892;10.692;2023-05-07T11:26:02;13.98;;;8.60;;
6651;SDS011;3362;50.892;10.692;2023-05-07T11:28:29;12.85;;;9.07;;
6651;SDS011;3362;50.892;10.692;2023-05-07T11:30:55;13.27;;;8.30;;
6651;SDS011;3362;50.892;10.692;2023-05-07T11:33:22;12.73;;;8.02;;
6651;SDS011;3362;50.892;10.692;2023-05-07T11:35:50;12.68;;;7.68;;
6651;SDS011;3362;50.892;10.692;2023-05-07T11:38:16;13.90;;;9.00;;
6651;SDS011;3362;50.892;10.692;2023-05-07T11:40:50;15.32;;;7.72;;
6651;SDS011;3362;50.892;10.692;2023-05-07T11:43:18;13.48;;;8.80;;
6651;SDS011;3362;50.892;10.692;2023-05-07T11:45:44;12.43;;;7.93;;
6651;SDS011;3362;50.892;10.692;2023-05-07T11:48:11;11.20;;;6.85;;
6651;SDS011;3362;50.892;10.692;2023-05-07T11:50:39;10.45;;;7.30;;
6651;SDS011;3362;50.892;10.692;2023-05-07T11:53:15;12.00;;;7.22;;
6651;SDS011;3362;50.892;10.692;2023-05-07T11:55:42;12.63;;;7.70;;
6651;SDS011;3362;50.892;10.692;2023-05-07T11:58:08;15.38;;;7.82;;
6651;SDS011;3362;50.892;10.692;2023-05-07T12:00:36;13.95;;;8.20;;
6651;SDS011;3362;50.892;10.692;2023-05-07T12:03:03;14.05;;;7.45;;
6651;SDS011;3362;50.892;10.692;2023-05-07T12:05:29;12.30;;;8.35;;
6651;SDS011;3362;50.892;10.692;2023-05-07T12:07:56;12.05;;;8.60;;
6651;SDS011;3362;50.892;10.692;2023-05-07T12:10:22;12.80;;;8.48;;
6651;SDS011;3362;50.892;10.692;2023-05-07T12:12:49;13.48;;;8.05;;
6651;SDS011;3362;50.892;10.692;2023-05-07T12:15:16;12.52;;;7.93;;
6651;SDS011;3362;50.892;10.692;2023-05-07T12:17:43;14.25;;;9.15;;
6651;SDS011;3362;50.892;10.692;2023-05-07T12:20:10;12.50;;;8.45;;
6651;SDS011;3362;50.892;10.692;2023-05-07T12:22:36;14.07;;;8.40;;
6651;SDS011;3362;50.892;10.692;2023-05-07T12:25:03;12.75;;;8.25;;
6651;SDS011;3362;50.892;10.692;2023-05-07T12:27:29;11.07;;;7.45;;
6651;SDS011;3362;50.892;10.692;2023-05-07T12:29:56;11.82;;;7.68;;
6651;SDS011;3362;50.892;10.692;2023-05-07T12:32:23;10.98;;;7.65;;
6651;SDS011;3362;50.892;10.692;2023-05-07T12:34:51;11.20;;;6.82;;
6651;SDS011;3362;50.892;10.692;2023-05-07T12:37:22;11.38;;;7.78;;
6651;SDS011;3362;50.892;10.692;2023-05-07T12:39:48;11.00;;;7.47;;
6651;SDS011;3362;50.892;10.692;2023-05-07T12:42:15;10.80;;;8.02;;
6651;SDS011;3362;50.892;10.692;2023-05-07T12:44:43;12.75;;;7.43;;
6651;SDS011;3362;50.892;10.692;2023-05-07T12:47:11;13.73;;;8.20;;
6651;SDS011;3362;50.892;10.692;2023-05-07T12:49:37;13.25;;;7.50;;
6651;SDS011;3362;50.892;10.692;2023-05-07T12:52:06;12.63;;;8.00;;
6651;SDS011;3362;50.892;10.692;2023-05-07T12:54:33;11.13;;;7.80;;
6651;SDS011;3362;50.892;10.692;2023-05-07T12:57:00;12.57;;;7.03;;
6651;SDS011;3362;50.892;10.692;2023-05-07T12:59:30;11.05;;;7.28;;
6651;SDS011;3362;50.892;10.692;2023-05-07T13:01:56;10.70;;;7.53;;
6651;SDS011;3362;50.892;10.692;2023-05-07T13:04:24;10.50;;;6.97;;
6651;SDS011;3362;50.892;10.692;2023-05-07T13:06:50;10.32;;;7.32;;
6651;SDS011;3362;50.892;10.692;2023-05-07T13:09:17;14.10;;;7.32;;
6651;SDS011;3362;50.892;10.692;2023-05-07T13:11:44;13.07;;;7.93;;
6651;SDS011;3362;50.892;10.692;2023-05-07T13:14:10;12.07;;;7.30;;
6651;SDS011;3362;50.892;10.692;2023-05-07T13:16:36;10.63;;;7.50;;
6651;SDS011;3362;50.892;10.692;2023-05-07T13:19:02;9.38;;;6.55;;
6651;SDS011;3362;50.892;10.692;2023-05-07T13:21:29;11.38;;;7.35;;
6651;SDS011;3362;50.892;10.692;2023-05-07T13:23:56;13.88;;;6.88;;
6651;SDS011;3362;50.892;10.692;2023-05-07T13:26:24;11.93;;;8.23;;
6651;SDS011;3362;50.892;10.692;2023-05-07T13:28:50;10.75;;;7.57;;
6651;SDS011;3362;50.892;10.692;2023-05-07T13:31:17;9.07;;;6.78;;
6651;SDS011;3362;50.892;10.692;2023-05-07T13:33:43;11.60;;;8.00;;
6651;SDS011;3362;50.892;10.692;2023-05-07T13:36:09;9.35;;;6.60;;
6651;SDS011;3362;50.892;10.692;2023-05-07T13:38:35;9.95;;;6.75;;
6651;SDS011;3362;50.892;10.692;2023-05-07T13:41:02;9.48;;;6.80;;
6651;SDS011;3362;50.892;10.692;2023-05-07T13:43:30;10.52;;;7.32;;
6651;SDS011;3362;50.892;10.692;2023-05-07T13:45:56;10.18;;;6.78;;
6651;SDS011;3362;50.892;10.692;2023-05-07T13:48:23;9.25;;;6.70;;
6651;SDS011;3362;50.892;10.692;2023-05-07T13:50:49;9.90;;;7.07;;
6651;SDS011;3362;50.892;10.692;2023-05-07T13:53:16;10.02;;;6.68;;
6651;SDS011;3362;50.892;10.692;2023-05-07T13:55:43;11.70;;;7.32;;
6651;SDS011;3362;50.892;10.692;2023-05-07T13:58:09;7.85;;;6.47;;
6651;SDS011;3362;50.892;10.692;2023-05-07T14:00:37;9.15;;;6.15;;
6651;SDS011;3362;50.892;10.692;2023-05-07T14:03:04;8.07;;;5.93;;
6651;SDS011;3362;50.892;10.692;2023-05-07T14:05:30;9.27;;;6.13;;
6651;SDS011;3362;50.892;10.692;2023-05-07T14:07:57;9.52;;;6.70;;
6651;SDS011;3362;50.892;10.692;2023-05-07T14:10:23;8.35;;;6.18;;
6651;SDS011;3362;50.892;10.692;2023-05-07T14:12:50;8.10;;;5.40;;
6651;SDS011;3362;50.892;10.692;2023-05-07T14:15:17;9.55;;;5.65;;
6651;SDS011;3362;50.892;10.692;2023-05-07T14:17:45;11.15;;;5.93;;
6651;SDS011;3362;50.892;10.692;2023-05-07T14:20:11;9.65;;;6.20;;
6651;SDS011;3362;50.892;10.692;2023-05-07T14:22:38;8.35;;;5.80;;
6651;SDS011;3362;50.892;10.692;2023-05-07T14:25:04;7.43;;;5.15;;
6651;SDS011;3362;50.892;10.692;2023-05-07T14:27:31;11.45;;;5.82;;
6651;SDS011;3362;50.892;10.692;2023-05-07T14:29:57;8.98;;;6.10;;
6651;SDS011;3362;50.892;10.692;2023-05-07T14:32:23;8.63;;;5.88;;
6651;SDS011;3362;50.892;10.692;2023-05-07T14:34:51;15.30;;;6.47;;
6651;SDS011;3362;50.892;10.692;2023-05-07T14:37:17;10.43;;;6.18;;
6651;SDS011;3362;50.892;10.692;2023-05-07T14:39:44;8.35;;;5.93;;
6651;SDS011;3362;50.892;10.692;2023-05-07T14:42:10;7.53;;;4.93;;
6651;SDS011;3362;50.892;10.692;2023-05-07T14:44:37;8.32;;;5.22;;
6651;SDS011;3362;50.892;10.692;2023-05-07T14:47:05;8.95;;;6.00;;
6651;SDS011;3362;50.892;10.692;2023-05-07T14:49:31;9.73;;;5.65;;